Time;durP1;ratioP1;P1;durP2;ratioP2;P2;SDS_P1;SDS_P2;PMS_P1;PMS_P2;Temp;Humidity;BMP_temperature;BMP_pressure;BME280_temperature;BME280_humidity;BME280_pressure;Samples;Min_cycle;Max_cycle;Signal;HPM_P1;HPM_P2
2023/09/05 00:01:42;;;;;;;8.35;5.68;;;;;;;18.19;76.87;101937.13;5034202;28;20041;-67
2023/09/05 00:04:07;;;;;;;7.60;5.80;;;;;;;18.20;76.98;101940.66;5037255;28;20490;-67
2023/09/05 00:06:33;;;;;;;8.75;5.82;;;;;;;18.20;77.02;101941.47;5030014;28;20407;-66
2023/09/05 00:08:58;;;;;;;7.07;5.70;;;;;;;18.16;76.93;101940.22;5029363;28;20105;-66
2023/09/05 00:11:23;;;;;;;7.43;6.05;;;;;;;18.13;77.00;101945.16;5035904;28;20017;-67
2023/09/05 00:13:49;;;;;;;9.02;6.13;;;;;;;18.10;77.18;101932.94;5030294;28;20021;-67
2023/09/05 00:16:14;;;;;;;6.68;5.82;;;;;;;17.99;77.30;101928.06;5030056;28;20021;-66
2023/09/05 00:18:39;;;;;;;7.15;5.95;;;;;;;17.93;77.30;101936.91;5035070;28;20028;-67
2023/09/05 00:21:07;;;;;;;7.18;5.45;;;;;;;17.85;77.83;101937.03;5031240;28;20029;-67
2023/09/05 00:23:32;;;;;;;8.83;5.40;;;;;;;17.80;77.97;101929.53;5035291;28;20021;-67
2023/09/05 00:25:58;;;;;;;7.32;6.03;;;;;;;17.72;77.92;101940.41;5032208;28;20090;-66
2023/09/05 00:28:23;;;;;;;9.52;5.40;;;;;;;17.71;78.41;101935.25;5036725;28;20022;-67
2023/09/05 00:30:49;;;;;;;8.82;6.32;;;;;;;17.70;78.58;101947.84;5030614;28;20029;-67
2023/09/05 00:33:15;;;;;;;9.70;5.93;;;;;;;17.71;78.83;101938.75;5028492;28;20021;-66
2023/09/05 00:35:40;;;;;;;10.45;6.30;;;;;;;17.64;78.89;101941.34;5028164;28;20486;-66
2023/09/05 00:38:05;;;;;;;9.13;5.93;;;;;;;17.59;79.03;101932.16;5036829;28;20033;-66
2023/09/05 00:40:30;;;;;;;9.57;6.40;;;;;;;17.56;79.16;101946.81;5035073;28;20038;-66
2023/09/05 00:42:56;;;;;;;10.43;6.50;;;;;;;17.50;79.68;101950.25;5038991;28;20051;-66
2023/09/05 00:45:22;;;;;;;10.45;6.30;;;;;;;17.48;79.80;101954.16;5037185;28;20078;-67
2023/09/05 00:47:48;;;;;;;6.88;5.80;;;;;;;17.45;79.95;101947.31;5033345;28;20030;-66
2023/09/05 00:50:18;;;;;;;9.57;6.20;;;;;;;17.43;80.02;101954.72;5034348;28;20105;-66
2023/09/05 00:52:46;;;;;;;8.18;6.50;;;;;;;17.42;80.01;101949.56;5031265;28;20026;-66
2023/09/05 00:55:11;;;;;;;9.02;6.25;;;;;;;17.35;80.38;101952.16;5031029;28;20025;-67
2023/09/05 00:57:38;;;;;;;8.07;6.30;;;;;;;17.30;80.31;101949.19;5028508;28;20037;-67
2023/09/05 01:00:05;;;;;;;11.15;6.57;;;;;;;17.27;80.65;101939.66;5031679;28;20017;-67
2023/09/05 01:02:31;;;;;;;10.65;6.60;;;;;;;17.26;80.49;101950.59;5042839;28;20071;-66
2023/09/05 01:04:56;;;;;;;10.35;6.82;;;;;;;17.21;80.85;101943.09;5028837;28;20534;-66
2023/09/05 01:07:51;;;;;;;10.00;6.95;;;;;;;17.22;81.06;101946.63;5041450;28;20479;-66
2023/09/05 01:10:23;;;;;;;8.10;6.95;;;;;;;17.09;81.14;101943.78;5027931;28;20022;-66
2023/09/05 01:12:49;;;;;;;9.27;7.13;;;;;;;17.06;81.48;101944.97;5028165;28;20399;-67
2023/09/05 01:15:14;;;;;;;9.07;7.00;;;;;;;17.01;80.96;101945.50;5033993;28;20079;-66
2023/09/05 01:17:39;;;;;;;8.35;6.68;;;;;;;16.98;81.83;101945.88;5029557;28;20041;-66
2023/09/05 01:20:07;;;;;;;10.25;6.63;;;;;;;16.96;82.10;101939.88;5035880;28;20025;-67
2023/09/05 01:22:48;;;;;;;8.77;6.93;;;;;;;16.94;82.12;101939.22;5040661;28;20094;-66
2023/09/05 01:25:14;;;;;;;8.43;6.82;;;;;;;16.94;82.27;101941.91;5034775;28;20022;-67
2023/09/05 01:27:39;;;;;;;9.82;6.88;;;;;;;16.93;81.98;101944.78;5036983;28;20574;-66
2023/09/05 01:30:09;;;;;;;7.95;6.90;;;;;;;16.90;82.16;101945.16;5028468;28;20410;-67
2023/09/05 01:32:34;;;;;;;8.65;6.63;;;;;;;16.87;82.41;101941.00;5030623;28;20403;-67
2023/09/05 01:34:59;;;;;;;11.00;6.85;;;;;;;16.86;82.55;101936.66;5041925;28;20036;-66
2023/09/05 01:37:25;;;;;;;8.90;6.78;;;;;;;16.87;82.71;101934.78;5039399;28;20086;-66
2023/09/05 01:39:50;;;;;;;7.38;6.43;;;;;;;16.85;82.69;101931.47;5047453;28;20036;-67
2023/09/05 01:42:15;;;;;;;10.50;7.00;;;;;;;16.83;82.75;101931.66;5040897;28;20052;-66
2023/09/05 01:44:40;;;;;;;9.25;6.80;;;;;;;16.79;83.07;101926.84;5031512;28;20037;-66
2023/09/05 01:47:06;;;;;;;8.88;6.72;;;;;;;16.80;82.88;101933.88;5037734;28;20022;-67
2023/09/05 01:49:31;;;;;;;7.65;6.20;;;;;;;16.77;82.76;101943.13;5039644;28;20036;-66
2023/09/05 01:51:56;;;;;;;9.30;6.45;;;;;;;16.77;82.73;101936.91;5035887;28;20079;-66
2023/09/05 01:54:22;;;;;;;7.63;6.47;;;;;;;16.79;82.66;101935.72;5036055;28;20024;-67
2023/09/05 01:56:47;;;;;;;12.80;7.00;;;;;;;16.72;82.83;101935.59;5039127;28;20032;-67
2023/09/05 01:59:12;;;;;;;8.85;7.05;;;;;;;16.76;82.96;101940.59;5036051;28;20021;-67
2023/09/05 02:01:38;;;;;;;11.98;6.80;;;;;;;16.74;82.65;101935.41;5033782;28;20029;-66
2023/09/05 02:04:03;;;;;;;9.00;6.88;;;;;;;16.71;82.95;101938.47;5044324;28;20029;-67
2023/09/05 02:06:29;;;;;;;8.15;6.10;;;;;;;16.71;82.60;101930.44;5038239;28;20013;-67
2023/09/05 02:08:54;;;;;;;7.47;6.05;;;;;;;16.67;82.82;101931.81;5032747;28;20400;-67
2023/09/05 02:11:19;;;;;;;8.38;6.28;;;;;;;16.69;82.55;101932.47;5032105;28;20039;-66
2023/09/05 02:13:44;;;;;;;7.90;5.85;;;;;;;16.69;82.78;101932.47;5032436;28;20033;-66
2023/09/05 02:16:10;;;;;;;7.80;5.95;;;;;;;16.67;82.87;101931.81;5039504;28;20026;-66
2023/09/05 02:18:35;;;;;;;8.98;6.43;;;;;;;16.66;82.63;101940.88;5040104;28;20048;-66
2023/09/05 02:21:01;;;;;;;9.30;5.95;;;;;;;16.63;82.68;101935.84;5034515;28;20162;-66
2023/09/05 02:23:27;;;;;;;11.18;6.30;;;;;;;16.61;82.67;101933.34;5030868;28;20104;-67
2023/09/05 02:26:01;;;;;;;8.10;5.85;;;;;;;16.59;82.91;101929.19;5030358;28;20052;-66
2023/09/05 02:28:27;;;;;;;8.80;5.93;;;;;;;16.57;82.98;101926.69;5035363;28;20124;-67
2023/09/05 02:30:53;;;;;;;8.13;6.00;;;;;;;16.54;83.31;101924.38;5037069;28;20048;-66
2023/09/05 02:33:19;;;;;;;8.68;5.63;;;;;;;16.55;83.41;101926.06;5031028;28;20025;-66
2023/09/05 02:35:44;;;;;;;7.30;6.10;;;;;;;16.57;83.25;101925.88;5043653;28;20032;-67
2023/09/05 02:38:10;;;;;;;9.75;6.03;;;;;;;16.60;83.30;101928.19;5038605;28;20109;-66
2023/09/05 02:40:35;;;;;;;9.32;6.07;;;;;;;16.60;83.12;101915.59;5031775;28;20178;-66
2023/09/05 02:43:01;;;;;;;8.50;6.22;;;;;;;16.61;83.07;101919.13;5036176;28;20025;-66
2023/09/05 02:45:27;;;;;;;10.13;5.88;;;;;;;16.58;82.92;101925.69;5033146;28;20036;-66
2023/09/05 02:47:52;;;;;;;7.35;6.28;;;;;;;16.56;83.14;101926.88;5031913;28;20083;-66
2023/09/05 02:50:17;;;;;;;11.18;6.40;;;;;;;16.55;83.04;101919.84;5040098;28;20108;-66
2023/09/05 02:52:42;;;;;;;9.13;6.18;;;;;;;16.60;82.97;101920.13;5042180;28;20040;-66
2023/09/05 02:55:08;;;;;;;8.35;6.20;;;;;;;16.59;82.71;101913.94;5036063;28;20029;-66
2023/09/05 02:57:33;;;;;;;8.65;6.25;;;;;;;16.61;82.65;101905.69;5035823;28;20060;-66
2023/09/05 02:59:58;;;;;;;7.38;5.80;;;;;;;16.60;82.27;101906.72;5041299;28;20120;-66
2023/09/05 03:02:24;;;;;;;8.45;6.05;;;;;;;16.58;82.49;101906.06;5041063;28;20028;-66
2023/09/05 03:04:53;;;;;;;7.72;5.78;;;;;;;16.61;82.44;101911.91;5041233;28;20031;-66
2023/09/05 03:07:22;;;;;;;8.27;5.78;;;;;;;16.63;82.19;101907.19;5040019;28;20075;-66
2023/09/05 03:09:51;;;;;;;9.90;5.38;;;;;;;16.66;81.91;101900.66;5034995;28;20021;-66
2023/09/05 03:12:17;;;;;;;6.85;5.50;;;;;;;16.69;81.38;101901.09;5038104;28;20018;-66
2023/09/05 03:14:43;;;;;;;8.30;5.97;;;;;;;16.68;81.25;101891.41;5030515;28;20026;-66
2023/09/05 03:17:09;;;;;;;8.65;5.38;;;;;;;16.69;81.21;101895.75;5031954;28;20029;-66
2023/09/05 03:19:38;;;;;;;8.95;5.43;;;;;;;16.72;81.03;101902.59;5037799;28;20028;-66
2023/09/05 03:22:04;;;;;;;8.38;5.00;;;;;;;16.73;80.95;101901.56;5031371;28;20077;-66
2023/09/05 03:24:29;;;;;;;6.28;4.90;;;;;;;16.76;80.79;101906.56;5031715;28;20021;-66
2023/09/05 03:26:54;;;;;;;7.15;5.20;;;;;;;16.77;80.51;101902.88;5037544;28;20451;-66
2023/09/05 03:29:19;;;;;;;8.30;5.28;;;;;;;16.77;80.33;101899.34;5032819;28;20026;-66
2023/09/05 03:31:45;;;;;;;8.05;5.15;;;;;;;16.75;80.40;101896.84;5034423;28;20021;-66
2023/09/05 03:34:10;;;;;;;8.38;5.47;;;;;;;16.75;80.31;101898.69;5039518;28;20116;-66
2023/09/05 03:36:36;;;;;;;8.63;5.47;;;;;;;16.67;80.45;101900.47;5046003;28;20574;-66
2023/09/05 03:39:01;;;;;;;7.30;5.28;;;;;;;16.67;80.14;101900.47;5029797;28;20104;-66
2023/09/05 03:41:28;;;;;;;6.95;5.15;;;;;;;16.66;80.41;101893.44;5032153;28;20488;-67
2023/09/05 03:43:54;;;;;;;6.78;5.20;;;;;;;16.65;80.37;101893.59;5042317;28;20024;-66
2023/09/05 03:46:19;;;;;;;8.82;5.70;;;;;;;16.65;80.35;101890.91;5040964;28;20022;-66
2023/09/05 03:48:45;;;;;;;8.75;5.57;;;;;;;16.64;80.24;101889.25;5036512;28;20048;-66
2023/09/05 03:51:11;;;;;;;8.23;5.20;;;;;;;16.63;80.15;101898.31;5030185;28;20017;-66
2023/09/05 03:53:36;;;;;;;8.55;5.30;;;;;;;16.61;80.15;101894.97;5029085;28;20033;-66
2023/09/05 03:56:01;;;;;;;6.55;4.90;;;;;;;16.60;79.97;101890.63;5032413;28;20025;-67
2023/09/05 03:58:27;;;;;;;8.68;5.38;;;;;;;16.58;79.98;101887.31;5029011;28;20049;-66
2023/09/05 04:00:54;;;;;;;9.02;5.53;;;;;;;16.57;80.29;101893.69;5033528;28;20541;-66
2023/09/05 04:03:20;;;;;;;7.80;5.68;;;;;;;16.56;80.06;101889.34;5040576;28;20047;-66
2023/09/05 04:05:45;;;;;;;9.63;5.25;;;;;;;16.54;80.37;101883.31;5048452;28;20061;-66
2023/09/05 04:08:10;;;;;;;7.65;5.10;;;;;;;16.52;80.32;101877.31;5030663;28;20030;-67
2023/09/05 04:10:36;;;;;;;6.88;4.75;;;;;;;16.51;80.14;101881.84;5039435;28;20029;-67
2023/09/05 04:13:02;;;;;;;7.82;5.20;;;;;;;16.50;80.22;101879.34;5036587;28;20534;-66
2023/09/05 04:15:27;;;;;;;7.00;5.03;;;;;;;16.48;80.25;101870.63;5035508;28;20104;-66
2023/09/05 04:17:52;;;;;;;6.85;5.53;;;;;;;16.48;80.38;101865.28;5031938;28;20087;-66
2023/09/05 04:20:18;;;;;;;6.40;5.13;;;;;;;16.49;80.46;101864.28;5034478;28;20017;-66
2023/09/05 04:22:44;;;;;;;7.32;5.15;;;;;;;16.49;80.38;101866.97;5032209;28;20108;-66
2023/09/05 04:25:09;;;;;;;7.55;5.25;;;;;;;16.50;80.48;101863.25;5029578;28;20501;-66
2023/09/05 04:27:34;;;;;;;7.45;4.80;;;;;;;16.51;80.27;101872.97;5029526;28;20022;-67
2023/09/05 04:30:00;;;;;;;11.57;5.32;;;;;;;16.47;80.37;101859.06;5034214;28;20026;-66
2023/09/05 04:32:30;;;;;;;7.57;5.53;;;;;;;16.49;80.31;101866.97;5028605;28;20022;-66
2023/09/05 04:34:58;;;;;;;6.85;4.70;;;;;;;16.50;80.26;101868.63;5035978;28;20387;-66
2023/09/05 04:37:24;;;;;;;8.57;4.70;;;;;;;16.52;79.97;101874.63;5028790;28;20024;-66
2023/09/05 04:39:50;;;;;;;7.63;5.45;;;;;;;16.50;80.22;101865.94;5037067;28;20078;-66
2023/09/05 04:42:15;;;;;;;12.82;5.68;;;;;;;16.48;80.07;101866.13;5033624;28;20017;-66
2023/09/05 04:44:40;;;;;;;7.75;5.38;;;;;;;16.50;79.96;101866.78;5033537;28;20025;-66
2023/09/05 04:47:26;;;;;;;8.70;5.43;;;;;;;16.51;80.08;101864.94;5038650;28;20108;-66
2023/09/05 04:49:53;;;;;;;7.65;5.25;;;;;;;16.49;80.02;101869.66;5044166;28;20035;-66
2023/09/05 04:52:20;;;;;;;9.77;5.80;;;;;;;16.48;80.16;101865.28;5032392;28;20103;-66
2023/09/05 04:54:46;;;;;;;9.02;5.25;;;;;;;16.48;80.05;101866.13;5029085;28;20029;-66
2023/09/05 04:57:16;;;;;;;8.40;5.00;;;;;;;16.47;80.22;101867.13;5033445;28;20099;-66
2023/09/05 04:59:47;;;;;;;7.60;5.07;;;;;;;16.45;80.21;101863.78;5031875;28;20055;-66
2023/09/05 05:02:13;;;;;;;8.07;5.25;;;;;;;16.45;80.11;101869.16;5032916;28;20389;-66
2023/09/05 05:04:40;;;;;;;7.47;5.50;;;;;;;16.46;80.23;101865.47;5030817;28;20027;-66
2023/09/05 05:07:06;;;;;;;10.48;5.25;;;;;;;16.47;80.21;101866.28;5039432;28;20078;-66
2023/09/05 05:09:31;;;;;;;9.70;5.47;;;;;;;16.47;80.29;101867.13;5033233;28;20034;-66
2023/09/05 05:11:56;;;;;;;6.55;4.68;;;;;;;16.49;79.98;101870.47;5027935;28;20045;-66
2023/09/05 05:14:21;;;;;;;6.40;5.15;;;;;;;16.50;79.74;101877.50;5032241;28;20397;-66
2023/09/05 05:16:48;;;;;;;9.63;5.68;;;;;;;16.51;79.96;101872.97;5029539;28;20025;-66
2023/09/05 05:19:13;;;;;;;6.43;4.70;;;;;;;16.53;79.67;101871.78;5028058;28;20576;-66
2023/09/05 05:21:39;;;;;;;5.60;4.82;;;;;;;16.54;79.75;101867.25;5028026;28;20021;-66
2023/09/05 05:24:07;;;;;;;9.15;5.00;;;;;;;16.58;79.63;101873.91;5031252;28;20100;-66
2023/09/05 05:26:33;;;;;;;9.20;5.10;;;;;;;16.62;79.54;101875.19;5039438;28;20029;-66
2023/09/05 05:28:58;;;;;;;6.15;4.75;;;;;;;16.66;79.42;101876.50;5034570;28;20017;-66
2023/09/05 05:31:24;;;;;;;9.02;4.90;;;;;;;16.70;79.31;101880.47;5028454;28;20117;-66
2023/09/05 05:33:49;;;;;;;6.93;4.82;;;;;;;16.75;79.29;101879.91;5029447;28;20117;-66
2023/09/05 05:36:14;;;;;;;6.15;4.80;;;;;;;16.80;79.07;101880.22;5035906;28;20394;-66
2023/09/05 05:38:40;;;;;;;6.57;4.90;;;;;;;16.84;78.94;101879.66;5027781;28;20056;-66
2023/09/05 05:41:09;;;;;;;6.47;4.43;;;;;;;16.87;78.61;101887.31;5033712;28;20032;-66
2023/09/05 05:43:34;;;;;;;;;;;;;;;16.95;78.59;101887.22;5030291;28;20073;-66
2023/09/05 05:45:59;;;;;;;5.47;4.50;;;;;;;16.98;78.48;101886.84;5040985;28;20366;-66
2023/09/05 05:48:25;;;;;;;9.15;4.55;;;;;;;17.06;78.22;101883.25;5041267;28;20268;-66
2023/09/05 05:50:51;;;;;;;6.30;4.28;;;;;;;17.12;77.63;101887.84;5030884;28;20597;-66
2023/09/05 05:53:17;;;;;;;8.15;4.90;;;;;;;17.19;77.16;101882.56;5039806;28;20066;-66
2023/09/05 05:55:43;;;;;;;7.65;4.63;;;;;;;17.23;77.55;101878.47;5031695;28;20509;-66
2023/09/05 05:58:08;;;;;;;8.05;4.47;;;;;;;17.32;77.43;101877.34;5027577;28;20025;-66
2023/09/05 06:00:33;;;;;;;8.90;4.45;;;;;;;17.38;77.37;101887.34;5030897;28;20026;-67
2023/09/05 06:02:58;;;;;;;7.03;4.45;;;;;;;17.46;77.43;101884.53;5029451;28;20375;-66
2023/09/05 06:05:24;;;;;;;10.85;4.50;;;;;;;17.52;76.75;101889.13;5027684;28;20025;-66
2023/09/05 06:07:49;;;;;;;6.68;4.30;;;;;;;17.60;76.37;101888.16;5035712;28;20013;-66
2023/09/05 06:10:15;;;;;;;10.45;4.50;;;;;;;17.67;76.42;101890.94;5032946;28;20101;-67
2023/09/05 06:12:40;;;;;;;6.95;4.13;;;;;;;17.72;76.25;101888.53;5037812;28;20061;-66
2023/09/05 06:15:06;;;;;;;10.48;4.78;;;;;;;17.78;75.83;101891.28;5035718;28;20025;-66
2023/09/05 06:17:31;;;;;;;6.15;4.30;;;;;;;17.84;75.89;101901.25;5035611;28;20041;-66
2023/09/05 06:19:57;;;;;;;6.25;4.45;;;;;;;17.91;75.66;101901.31;5034065;28;20025;-66
2023/09/05 06:22:22;;;;;;;6.80;4.43;;;;;;;17.98;75.52;101887.97;5033060;28;20033;-66
2023/09/05 06:24:47;;;;;;;7.70;4.53;;;;;;;18.02;75.26;101895.44;5043203;28;20035;-66
2023/09/05 06:27:12;;;;;;;7.32;4.68;;;;;;;18.11;74.86;101893.44;5045758;28;20458;-66
2023/09/05 06:29:38;;;;;;;5.22;4.35;;;;;;;18.19;74.84;101891.41;5041671;28;20036;-67
2023/09/05 06:32:04;;;;;;;7.55;4.93;;;;;;;18.28;74.79;101889.44;5037178;28;20037;-66
2023/09/05 06:34:29;;;;;;;6.00;4.70;;;;;;;18.32;74.41;101892.56;5039664;28;20025;-66
2023/09/05 06:36:54;;;;;;;8.43;4.80;;;;;;;18.39;74.34;101896.97;5035053;28;20017;-67
2023/09/05 06:39:19;;;;;;;8.52;4.90;;;;;;;18.44;74.04;101882.91;5042128;28;20108;-67
2023/09/05 06:41:45;;;;;;;10.65;4.97;;;;;;;18.52;74.06;101891.69;5041677;28;20025;-66
2023/09/05 06:44:10;;;;;;;8.73;5.03;;;;;;;18.59;74.05;101889.03;5030945;28;20021;-67
2023/09/05 06:46:36;;;;;;;7.40;5.20;;;;;;;18.61;73.77;101889.66;5034238;28;20042;-66
2023/09/05 06:49:02;;;;;;;7.97;5.20;;;;;;;18.65;73.58;101890.94;5030390;28;20025;-67
2023/09/05 06:51:29;;;;;;;7.20;5.15;;;;;;;18.70;73.48;101896.56;5039199;28;20111;-67
2023/09/05 06:53:54;;;;;;;6.97;4.80;;;;;;;18.74;73.58;101889.75;5034706;28;20045;-67
2023/09/05 06:56:20;;;;;;;8.27;4.55;;;;;;;18.81;73.59;101887.94;5033191;28;20068;-67
2023/09/05 06:58:46;;;;;;;6.45;4.40;;;;;;;18.91;73.94;101892.97;5038227;28;20394;-67
2023/09/05 07:01:13;;;;;;;7.50;4.93;;;;;;;18.83;73.33;101879.69;5042128;28;20121;-66
2023/09/05 07:03:38;;;;;;;8.02;4.60;;;;;;;18.81;72.71;101876.34;5034878;28;20021;-66
2023/09/05 07:06:04;;;;;;;9.45;4.72;;;;;;;18.87;73.00;101871.00;5034110;28;20028;-67
2023/09/05 07:08:30;;;;;;;5.75;4.35;;;;;;;18.87;72.81;101873.69;5036621;28;20033;-66
2023/09/05 07:10:55;;;;;;;6.00;4.28;;;;;;;18.86;72.44;101865.81;5043371;28;20021;-66
2023/09/05 07:13:20;;;;;;;9.38;4.57;;;;;;;18.91;72.34;101866.03;5049735;28;20025;-66
2023/09/05 07:15:45;;;;;;;8.45;4.25;;;;;;;18.91;72.40;101873.28;5048941;28;20645;-66
2023/09/05 07:18:12;;;;;;;6.65;4.38;;;;;;;18.99;72.22;101871.25;5045598;28;20028;-67
2023/09/05 07:20:38;;;;;;;6.22;4.10;;;;;;;18.99;72.08;101873.94;5043746;28;20517;-67
2023/09/05 07:23:03;;;;;;;6.78;3.95;;;;;;;19.02;71.98;101870.00;5040676;28;20033;-66
2023/09/05 07:25:28;;;;;;;7.05;3.95;;;;;;;19.06;72.07;101865.88;5045469;28;20021;-66
2023/09/05 07:27:54;;;;;;;8.45;3.80;;;;;;;19.10;72.12;101872.53;5039030;28;20040;-67
2023/09/05 07:30:19;;;;;;;6.60;4.00;;;;;;;19.13;71.92;101867.59;5042080;28;20679;-66
2023/09/05 07:32:44;;;;;;;6.75;3.90;;;;;;;19.20;71.83;101862.22;5045227;28;20059;-66
2023/09/05 07:35:10;;;;;;;7.88;4.43;;;;;;;19.27;71.92;101873.00;5031103;28;20521;-66
2023/09/05 07:37:36;;;;;;;6.85;4.07;;;;;;;19.26;71.96;101853.31;5030001;28;20025;-66
2023/09/05 07:40:04;;;;;;;6.65;3.92;;;;;;;19.38;71.82;101865.19;5040649;28;20047;-66
2023/09/05 07:42:29;;;;;;;5.35;3.78;;;;;;;19.46;71.52;101854.19;5048045;28;20025;-66
2023/09/05 07:44:54;;;;;;;9.18;3.63;;;;;;;19.48;71.25;101859.38;5039935;28;20032;-66
2023/09/05 07:47:19;;;;;;;10.48;3.75;;;;;;;19.55;70.87;101865.63;5043374;28;20063;-67
2023/09/05 07:49:45;;;;;;;8.23;4.07;;;;;;;19.64;70.94;101853.63;5043311;28;20025;-67
2023/09/05 07:52:10;;;;;;;5.82;3.70;;;;;;;19.66;70.81;101856.97;5035415;28;20483;-66
2023/09/05 07:54:36;;;;;;;5.53;3.63;;;;;;;19.74;70.81;101856.75;5044104;28;20078;-67
2023/09/05 07:57:02;;;;;;;6.18;3.72;;;;;;;19.78;70.54;101860.69;5049169;28;20035;-67
2023/09/05 07:59:28;;;;;;;7.28;4.13;;;;;;;19.85;70.35;101854.47;5045654;28;20021;-66
2023/09/05 08:01:55;;;;;;;7.00;3.97;;;;;;;19.87;69.93;101869.41;5049432;28;20025;-66
2023/09/05 08:04:21;;;;;;;8.80;3.75;;;;;;;19.94;70.14;101864.84;5044415;28;20067;-67
2023/09/05 08:06:47;;;;;;;8.75;3.83;;;;;;;20.00;69.85;101872.13;5048951;28;20029;-66
2023/09/05 08:09:13;;;;;;;7.70;3.92;;;;;;;20.04;69.77;101876.06;5035491;28;20025;-66
2023/09/05 08:11:38;;;;;;;7.25;3.63;;;;;;;20.10;69.46;101877.09;5040956;28;20029;-66
2023/09/05 08:14:03;;;;;;;4.53;3.58;;;;;;;20.15;69.36;101879.16;5044543;28;20086;-67
2023/09/05 08:16:29;;;;;;;10.23;3.75;;;;;;;20.19;69.28;101878.53;5043157;28;20098;-66
2023/09/05 08:18:54;;;;;;;4.90;3.63;;;;;;;20.25;69.61;101885.81;5040123;28;20401;-66
2023/09/05 08:21:20;;;;;;;6.88;3.53;;;;;;;20.35;70.00;101883.50;5048357;28;20541;-66
2023/09/05 08:23:45;;;;;;;5.72;3.75;;;;;;;20.38;69.77;101883.06;5036512;28;20395;-67
2023/09/05 08:26:11;;;;;;;5.68;3.63;;;;;;;20.46;70.17;101881.22;5043374;28;20013;-67
2023/09/05 08:28:42;;;;;;;6.65;3.65;;;;;;;20.53;69.99;101864.00;5043067;28;20021;-66
2023/09/05 08:31:08;;;;;;;8.73;3.78;;;;;;;20.60;69.97;101872.91;5047582;28;20025;-66
2023/09/05 08:33:34;;;;;;;4.57;3.80;;;;;;;20.67;69.44;101873.69;5036507;28;20025;-66
2023/09/05 08:35:59;;;;;;;5.80;3.17;;;;;;;20.73;69.24;101869.31;5037128;28;20382;-67
2023/09/05 08:38:24;;;;;;;6.18;3.40;;;;;;;20.83;68.76;101877.00;5033535;28;20025;-67
2023/09/05 08:40:50;;;;;;;4.00;2.95;;;;;;;20.90;68.14;101867.81;5036377;28;20055;-67
2023/09/05 08:43:17;;;;;;;4.78;3.03;;;;;;;20.99;67.38;101866.53;5028224;28;20072;-67
2023/09/05 08:45:45;;;;;;;3.55;2.85;;;;;;;21.08;67.58;101863.56;5036280;28;20035;-67
2023/09/05 08:48:10;;;;;;;6.03;3.27;;;;;;;21.18;67.86;101872.06;5044150;28;20567;-67
2023/09/05 08:50:36;;;;;;;6.25;3.22;;;;;;;21.26;67.98;101882.63;5036386;28;20044;-67
2023/09/05 08:53:14;;;;;;;4.57;3.25;;;;;;;21.36;67.61;101879.47;5029930;28;20029;-66
2023/09/05 08:55:41;;;;;;;4.72;2.90;;;;;;;21.43;67.24;101877.56;5045072;28;20044;-67
2023/09/05 08:58:12;;;;;;;7.40;3.00;;;;;;;21.51;67.65;101871.91;5043107;28;20017;-67
2023/09/05 09:00:38;;;;;;;4.95;2.88;;;;;;;21.55;67.56;101873.94;5047592;28;20025;-67
2023/09/05 09:03:05;;;;;;;4.32;3.05;;;;;;;21.63;66.82;101880.94;5034772;28;20017;-67
2023/09/05 09:05:30;;;;;;;8.50;2.90;;;;;;;21.73;66.83;101878.63;5042628;28;20032;-67
2023/09/05 09:07:56;;;;;;;5.82;2.90;;;;;;;21.84;67.55;101877.91;5038038;28;20482;-66
2023/09/05 09:10:23;;;;;;;4.35;2.88;;;;;;;21.91;67.17;101881.38;5030727;28;20036;-67
2023/09/05 09:13:18;;;;;;;5.88;3.00;;;;;;;22.04;67.08;101874.25;5026447;28;20474;-67
2023/09/05 09:15:46;;;;;;;5.47;3.28;;;;;;;22.12;66.42;101869.38;5035855;28;20028;-67
2023/09/05 09:18:17;;;;;;;4.15;3.03;;;;;;;22.21;65.65;101872.63;5028261;28;20501;-66
2023/09/05 09:20:43;;;;;;;8.20;2.97;;;;;;;22.30;65.06;101876.72;5041027;28;20025;-67
2023/09/05 09:23:09;;;;;;;5.85;2.65;;;;;;;22.40;65.22;101877.03;5027867;28;20541;-67
2023/09/05 09:25:34;;;;;;;4.82;2.80;;;;;;;22.53;64.88;101876.03;5038433;28;20021;-67
2023/09/05 09:28:00;;;;;;;5.15;2.72;;;;;;;22.68;65.04;101884.63;5028196;28;20026;-66
2023/09/05 09:30:27;;;;;;;7.35;2.92;;;;;;;22.85;64.45;101887.63;5036937;28;20030;-67
2023/09/05 09:32:54;;;;;;;4.63;2.97;;;;;;;23.08;64.99;101892.31;5045182;28;20064;-67
2023/09/05 09:35:20;;;;;;;2.88;2.50;;;;;;;23.22;64.29;101896.53;5036752;28;20360;-67
2023/09/05 09:37:46;;;;;;;4.78;2.70;;;;;;;23.41;63.55;101897.28;5031573;28;20038;-67
2023/09/05 09:40:12;;;;;;;4.55;2.63;;;;;;;23.59;62.90;101897.28;5040429;28;20387;-67
2023/09/05 09:42:38;;;;;;;9.45;2.95;;;;;;;23.74;62.40;101894.16;5034820;28;20152;-67
2023/09/05 09:45:08;;;;;;;4.90;2.55;;;;;;;23.74;61.13;101894.97;5030390;28;20506;-67
2023/09/05 09:47:34;;;;;;;8.23;2.75;;;;;;;24.02;61.47;101896.22;5035904;28;20026;-67
2023/09/05 09:50:02;;;;;;;4.32;2.72;;;;;;;24.07;60.76;101894.44;5039032;28;20096;-67
2023/09/05 09:52:31;;;;;;;6.88;2.58;;;;;;;24.34;60.78;101894.84;5045492;28;20106;-67
2023/09/05 09:54:58;;;;;;;;;;;;;;;24.44;61.53;101890.69;5035258;28;20141;-67
2023/09/05 09:57:34;;;;;;;5.47;2.42;;;;;;;24.67;60.09;101894.22;5034730;28;19999;-67
2023/09/05 10:00:03;;;;;;;8.02;2.70;;;;;;;24.63;58.45;101881.34;5036692;28;20028;-67
2023/09/05 10:02:29;;;;;;;7.53;2.58;;;;;;;24.78;57.83;101867.25;5040469;28;20028;-67
2023/09/05 10:04:57;;;;;;;9.15;2.40;;;;;;;24.73;56.77;101881.56;5038553;28;20631;-67
2023/09/05 10:07:22;;;;;;;5.75;2.70;;;;;;;24.86;57.04;101889.44;5031933;28;20017;-67
2023/09/05 10:09:49;;;;;;;4.90;2.50;;;;;;;25.00;56.33;101887.31;5037227;28;20051;-67
2023/09/05 10:12:23;;;;;;;3.92;2.53;;;;;;;25.20;56.44;101884.19;5030886;28;20029;-67
2023/09/05 10:14:49;;;;;;;7.13;2.60;;;;;;;25.34;56.15;101882.81;5039380;28;20060;-67
2023/09/05 10:17:15;;;;;;;4.57;2.30;;;;;;;25.27;55.72;101880.25;5038388;28;20052;-67
2023/09/05 10:19:43;;;;;;;3.83;2.42;;;;;;;25.42;55.41;101879.69;5036216;28;20029;-67
2023/09/05 10:22:09;;;;;;;6.10;2.40;;;;;;;25.55;55.31;101867.69;5033241;28;20094;-67
2023/09/05 10:24:37;;;;;;;3.65;2.50;;;;;;;25.59;54.75;101858.78;5031826;28;20041;-67
2023/09/05 10:27:03;;;;;;;4.75;2.50;;;;;;;25.57;55.03;101879.16;5034095;28;20032;-67
2023/09/05 10:29:49;;;;;;;3.60;2.53;;;;;;;25.72;55.06;101865.81;5037669;28;20026;-67
2023/09/05 10:32:18;;;;;;;3.83;2.40;;;;;;;25.81;54.85;101869.81;5036686;28;20133;-68
2023/09/05 10:34:57;;;;;;;5.32;2.40;;;;;;;26.00;54.46;101864.91;5030843;28;20091;-67
2023/09/05 10:37:48;;;;;;;6.90;2.47;;;;;;;25.91;53.31;101861.81;5035535;28;20661;-67
2023/09/05 10:40:14;;;;;;;3.65;2.45;;;;;;;25.86;52.36;101850.84;5041646;28;20059;-67
2023/09/05 10:42:54;;;;;;;3.38;2.45;;;;;;;26.14;53.43;101860.81;5034120;28;20025;-67
2023/09/05 10:45:22;;;;;;;4.85;2.65;;;;;;;26.14;53.36;101866.25;5038794;28;20046;-67
2023/09/05 10:47:53;;;;;;;5.10;2.50;;;;;;;26.22;53.63;101852.19;5035872;28;21761;-67
2023/09/05 10:50:22;;;;;;;5.45;2.22;;;;;;;26.30;54.12;101856.38;5030740;28;20116;-67
2023/09/05 10:53:11;;;;;;;5.35;2.40;;;;;;;26.46;53.70;101858.28;5034375;28;20021;-67
2023/09/05 10:55:44;;;;;;;5.97;2.38;;;;;;;26.58;53.58;101866.34;5035445;28;20129;-67
2023/09/05 10:58:51;;;;;;;5.07;2.42;;;;;;;26.76;53.31;101857.03;5030016;28;20414;-67
2023/09/05 11:01:34;;;;;;;5.43;2.38;;;;;;;26.90;53.35;101852.88;5039439;28;20021;-67
2023/09/05 11:04:07;;;;;;;4.45;2.17;;;;;;;26.88;52.54;101854.16;5039458;28;20033;-67
2023/09/05 11:06:42;;;;;;;3.72;2.30;;;;;;;26.74;50.90;101860.03;5029992;28;20032;-68
2023/09/05 11:09:08;;;;;;;4.53;2.45;;;;;;;26.70;50.70;101858.06;5035584;28;20033;-67
2023/09/05 11:11:36;;;;;;;5.30;2.20;;;;;;;26.83;51.26;101861.22;5032848;28;20040;-68
2023/09/05 11:14:03;;;;;;;4.18;2.20;;;;;;;26.89;50.75;101856.66;5031008;28;20026;-67
2023/09/05 11:16:28;;;;;;;4.90;2.30;;;;;;;26.99;51.35;101853.25;5039270;28;20043;-68
2023/09/05 11:18:57;;;;;;;4.60;2.10;;;;;;;26.98;51.25;101857.03;5034252;28;20025;-67
2023/09/05 11:21:23;;;;;;;4.47;2.30;;;;;;;26.92;50.86;101866.25;5032386;28;20030;-68
2023/09/05 11:23:51;;;;;;;4.70;2.38;;;;;;;27.02;51.40;101861.75;5034881;28;20053;-68